createdAt,value
2023-05-19T00:00:19.931Z,18.62
2023-05-19T00:01:17.915Z,19.10
2023-05-19T00:02:15.950Z,17.42
2023-05-19T00:03:13.470Z,14.68
2023-05-19T00:04:12.604Z,16.75
2023-05-19T00:05:11.015Z,17.87
2023-05-19T00:06:11.463Z,20.48
2023-05-19T00:07:11.518Z,15.90
2023-05-19T00:08:09.027Z,15.25
2023-05-19T00:09:07.885Z,20.73
2023-05-19T00:10:05.967Z,14.95
2023-05-19T00:11:03.165Z,14.82
2023-05-19T00:12:00.357Z,22.17
2023-05-19T00:12:59.048Z,17.10
2023-05-19T00:13:58.749Z,14.65
2023-05-19T00:14:55.858Z,19.25
2023-05-19T00:15:53.455Z,20.08
2023-05-19T00:16:50.702Z,14.23
2023-05-19T00:17:47.901Z,18.02
2023-05-19T00:18:44.836Z,18.12
2023-05-19T00:19:41.802Z,14.70
2023-05-19T00:20:39.117Z,18.45
2023-05-19T00:21:38.294Z,15.65
2023-05-19T00:22:35.477Z,15.70
2023-05-19T00:23:32.529Z,17.25
2023-05-19T00:24:29.401Z,18.25
2023-05-19T00:25:27.302Z,18.58
2023-05-19T00:26:24.968Z,14.40
2023-05-19T00:27:21.993Z,16.37
2023-05-19T00:28:19.004Z,18.77
2023-05-19T00:29:19.344Z,16.48
2023-05-19T00:30:16.400Z,15.77
2023-05-19T00:31:13.328Z,19.05
2023-05-19T00:32:10.524Z,15.60
2023-05-19T00:33:07.596Z,19.85
2023-05-19T00:34:05.000Z,17.15
2023-05-19T00:35:02.059Z,16.85
2023-05-19T00:35:59.121Z,15.20
2023-05-19T00:36:56.012Z,16.62
2023-05-19T00:37:53.079Z,15.70
2023-05-19T00:38:51.343Z,18.27
2023-05-19T00:39:48.278Z,17.52
2023-05-19T00:40:45.827Z,16.00
2023-05-19T00:41:42.767Z,20.17
2023-05-19T00:42:40.160Z,16.83
2023-05-19T00:43:37.164Z,15.20
2023-05-19T00:44:34.145Z,16.80
2023-05-19T00:45:31.283Z,20.05
2023-05-19T00:46:28.553Z,15.65
2023-05-19T00:47:25.786Z,20.75
2023-05-19T00:48:23.248Z,17.92
2023-05-19T00:49:20.193Z,14.25
2023-05-19T00:50:17.403Z,15.55
2023-05-19T00:51:17.138Z,15.63
2023-05-19T00:52:14.311Z,15.65
2023-05-19T00:53:11.303Z,14.38
2023-05-19T00:54:08.853Z,18.70
2023-05-19T00:55:06.346Z,17.02
2023-05-19T00:56:03.611Z,14.02
2023-05-19T00:57:01.109Z,18.55
2023-05-19T00:57:58.154Z,16.00
2023-05-19T00:58:55.252Z,15.48
2023-05-19T00:59:52.225Z,16.98
2023-05-19T01:00:49.946Z,21.05
2023-05-19T01:01:49.369Z,17.95
2023-05-19T01:02:46.384Z,16.95
2023-05-19T01:03:43.963Z,16.48
2023-05-19T01:04:41.963Z,15.70
2023-05-19T01:05:42.607Z,16.95
2023-05-19T01:06:39.486Z,16.35
2023-05-19T01:07:37.082Z,16.02
2023-05-19T01:08:38.150Z,16.75
2023-05-19T01:09:35.207Z,15.38
2023-05-19T01:10:32.358Z,18.58
2023-05-19T01:11:29.426Z,13.20
2023-05-19T01:12:27.061Z,17.37
2023-05-19T01:13:24.031Z,17.02
2023-05-19T01:14:21.658Z,16.83
2023-05-19T01:15:20.165Z,16.05
2023-05-19T01:16:35.233Z,15.98
2023-05-19T01:17:58.637Z,12.77
2023-05-19T01:19:28.996Z,13.62
2023-05-19T01:20:36.435Z,15.65
2023-05-19T01:21:37.508Z,15.77
2023-05-19T01:23:06.527Z,14.07
2023-05-19T01:24:06.316Z,18.02
2023-05-19T01:25:42.831Z,14.27
2023-05-19T01:27:17.838Z,15.02
2023-05-19T01:28:32.567Z,16.70
2023-05-19T01:30:04.803Z,17.40
2023-05-19T01:31:02.614Z,14.13
2023-05-19T01:32:00.765Z,17.60
2023-05-19T01:33:01.487Z,16.02
2023-05-19T01:34:56.740Z,17.02
2023-05-19T01:35:54.671Z,14.02
2023-05-19T01:36:51.697Z,16.37
2023-05-19T01:37:48.965Z,16.50
2023-05-19T01:38:47.125Z,15.50
2023-05-19T01:39:45.864Z,17.75
2023-05-19T01:40:44.052Z,19.40
2023-05-19T01:41:42.152Z,14.18
2023-05-19T01:42:40.798Z,23.60
2023-05-19T01:43:37.766Z,17.42
2023-05-19T01:44:34.750Z,15.20
2023-05-19T01:45:33.914Z,16.75
2023-05-19T01:46:30.948Z,15.65
2023-05-19T01:47:28.045Z,15.18
2023-05-19T01:48:25.528Z,16.62
2023-05-19T01:49:22.512Z,15.20
2023-05-19T01:50:19.745Z,15.80
2023-05-19T01:51:17.177Z,15.93
2023-05-19T01:52:14.158Z,16.50
2023-05-19T01:53:11.297Z,17.48
2023-05-19T01:54:08.203Z,14.25
2023-05-19T01:55:06.261Z,17.48
2023-05-19T01:56:03.780Z,16.55
2023-05-19T01:57:22.020Z,15.98
2023-05-19T01:58:28.211Z,16.35
2023-05-19T01:59:52.853Z,17.23
2023-05-19T02:01:43.619Z,17.33
2023-05-19T02:03:08.759Z,15.67
2023-05-19T02:04:21.757Z,17.10
2023-05-19T02:05:36.619Z,16.23
2023-05-19T02:06:44.514Z,19.70
2023-05-19T02:08:00.609Z,19.30
2023-05-19T02:09:32.968Z,15.30
2023-05-19T02:10:33.358Z,15.25
2023-05-19T02:11:39.344Z,15.82
2023-05-19T02:12:41.037Z,14.82
2023-05-19T02:13:39.500Z,22.08
2023-05-19T02:14:42.476Z,15.13
2023-05-19T02:15:44.999Z,17.42
2023-05-19T02:16:45.654Z,15.52
2023-05-19T02:17:48.655Z,16.67
2023-05-19T02:18:46.444Z,17.95
2023-05-19T02:19:43.844Z,21.62
2023-05-19T02:20:40.900Z,20.65
2023-05-19T02:21:37.814Z,16.85
2023-05-19T02:22:34.834Z,17.60
2023-05-19T02:23:31.841Z,17.77
2023-05-19T02:24:28.721Z,15.70
2023-05-19T02:25:25.971Z,16.77
2023-05-19T02:26:23.128Z,17.35
2023-05-19T02:27:20.075Z,15.13
2023-05-19T02:28:17.170Z,18.42
2023-05-19T02:29:14.197Z,15.52
2023-05-19T02:30:11.331Z,17.40
2023-05-19T02:31:10.268Z,18.15
2023-05-19T02:32:07.754Z,15.93
2023-05-19T02:33:06.766Z,17.37
2023-05-19T02:34:03.870Z,15.52
2023-05-19T02:35:01.111Z,16.42
2023-05-19T02:35:58.218Z,17.30
2023-05-19T02:36:56.760Z,16.05
2023-05-19T02:37:54.306Z,16.75
2023-05-19T02:38:51.537Z,15.45
2023-05-19T02:39:48.419Z,15.10
2023-05-19T02:40:45.439Z,15.63
2023-05-19T02:41:42.360Z,19.10
2023-05-19T02:42:39.230Z,16.08
2023-05-19T02:43:36.431Z,15.93
2023-05-19T02:44:33.424Z,16.42
2023-05-19T02:45:30.368Z,15.68
2023-05-19T02:46:27.424Z,17.35
2023-05-19T02:47:24.344Z,17.15
2023-05-19T02:48:21.352Z,19.80
2023-05-19T02:49:18.249Z,18.80
2023-05-19T02:50:15.269Z,14.93
2023-05-19T02:51:12.379Z,16.90
2023-05-19T02:52:09.343Z,16.77
2023-05-19T02:53:06.332Z,17.35
2023-05-19T02:54:03.359Z,18.17
2023-05-19T02:55:00.371Z,16.37
2023-05-19T02:55:57.291Z,15.90
2023-05-19T02:56:54.278Z,18.62
2023-05-19T02:57:51.140Z,15.30
2023-05-19T02:58:48.078Z,18.15
2023-05-19T02:59:45.234Z,15.23
2023-05-19T03:00:42.141Z,17.58
2023-05-19T03:01:40.712Z,15.57
2023-05-19T03:02:37.837Z,16.30
2023-05-19T03:03:34.988Z,16.12
2023-05-19T03:04:32.064Z,16.10
2023-05-19T03:05:30.545Z,16.20
2023-05-19T03:06:27.635Z,17.62
2023-05-19T03:07:25.508Z,16.48
2023-05-19T03:08:22.472Z,15.20
2023-05-19T03:09:19.422Z,14.95
2023-05-19T03:10:16.393Z,18.15
2023-05-19T03:11:13.445Z,17.73
2023-05-19T03:12:10.364Z,15.05
2023-05-19T03:13:07.270Z,17.85
2023-05-19T03:14:04.257Z,18.90
2023-05-19T03:15:01.513Z,16.55
2023-05-19T03:15:59.540Z,20.27
2023-05-19T03:16:56.820Z,19.33
2023-05-19T03:17:54.184Z,16.05
2023-05-19T03:18:51.568Z,18.85
2023-05-19T03:19:48.597Z,15.30
2023-05-19T03:20:45.810Z,17.58
2023-05-19T03:21:42.679Z,16.17
2023-05-19T03:22:39.615Z,18.67
2023-05-19T03:23:36.597Z,17.83
2023-05-19T03:24:33.558Z,16.45
2023-05-19T03:25:30.490Z,18.75
2023-05-19T03:26:27.594Z,18.52
2023-05-19T03:27:24.784Z,15.55
2023-05-19T03:28:23.531Z,17.60
2023-05-19T03:29:20.535Z,15.27
2023-05-19T03:30:17.523Z,15.50
2023-05-19T03:31:14.430Z,16.15
2023-05-19T03:32:11.513Z,16.92
2023-05-19T03:33:08.544Z,16.05
2023-05-19T03:34:05.587Z,15.93
2023-05-19T03:35:02.471Z,15.73
2023-05-19T03:35:59.538Z,15.77
2023-05-19T03:36:56.375Z,15.10
2023-05-19T03:37:53.315Z,14.93
2023-05-19T03:38:50.199Z,20.08
2023-05-19T03:39:47.118Z,20.35
2023-05-19T03:40:45.279Z,16.70
2023-05-19T03:41:42.233Z,14.95
2023-05-19T03:42:39.173Z,15.25
2023-05-19T03:43:36.040Z,16.83
2023-05-19T03:44:33.003Z,18.12
2023-05-19T03:45:29.972Z,15.50
2023-05-19T03:46:26.919Z,15.20
2023-05-19T03:47:23.934Z,18.08
2023-05-19T03:48:21.502Z,19.30
2023-05-19T03:49:18.449Z,14.60
2023-05-19T03:50:15.438Z,15.65
2023-05-19T03:51:12.554Z,16.58
2023-05-19T03:52:10.053Z,19.42
2023-05-19T03:53:07.070Z,18.58
2023-05-19T03:54:04.786Z,17.08
2023-05-19T03:55:01.735Z,18.48
2023-05-19T03:55:59.711Z,16.55
2023-05-19T03:56:56.680Z,17.25
2023-05-19T03:57:53.603Z,16.33
2023-05-19T03:58:50.503Z,14.95
2023-05-19T03:59:47.393Z,16.80
2023-05-19T04:00:44.316Z,15.77
2023-05-19T04:01:41.267Z,14.02
2023-05-19T04:02:38.322Z,16.83
2023-05-19T04:03:35.277Z,16.65
2023-05-19T04:04:32.539Z,16.52
2023-05-19T04:05:29.572Z,16.70
2023-05-19T04:06:26.478Z,17.48
2023-05-19T04:07:23.826Z,16.25
2023-05-19T04:08:20.725Z,17.77
2023-05-19T04:09:17.764Z,16.23
2023-05-19T04:10:14.840Z,16.08
2023-05-19T04:11:12.059Z,16.85
2023-05-19T04:12:09.120Z,14.43
2023-05-19T04:13:06.149Z,15.60
2023-05-19T04:14:03.214Z,17.30
2023-05-19T04:15:00.372Z,14.68
2023-05-19T04:15:57.363Z,14.50
2023-05-19T04:16:54.959Z,17.62
2023-05-19T04:17:52.100Z,15.93
2023-05-19T04:18:49.114Z,14.07
2023-05-19T04:19:46.083Z,14.95
2023-05-19T04:20:42.978Z,18.15
2023-05-19T04:21:40.036Z,16.35
2023-05-19T04:22:36.954Z,15.38
2023-05-19T04:23:33.965Z,15.27
2023-05-19T04:24:30.913Z,16.33
2023-05-19T04:25:28.487Z,14.48
2023-05-19T04:26:26.835Z,16.42
2023-05-19T04:27:24.141Z,15.43
2023-05-19T04:28:21.852Z,12.57
2023-05-19T04:29:18.853Z,15.10
2023-05-19T04:30:22.632Z,14.40
2023-05-19T04:31:21.889Z,13.95
2023-05-19T04:32:18.798Z,15.18
2023-05-19T04:33:15.740Z,18.67
2023-05-19T04:34:12.756Z,14.60
2023-05-19T04:35:09.859Z,14.23
2023-05-19T04:36:11.714Z,14.10
2023-05-19T04:37:10.403Z,16.55
2023-05-19T04:38:07.875Z,16.17
2023-05-19T04:39:08.789Z,13.15
2023-05-19T04:40:06.649Z,14.43
2023-05-19T04:41:04.600Z,14.82
2023-05-19T04:42:02.872Z,14.65
2023-05-19T04:43:02.343Z,14.10
2023-05-19T04:43:59.372Z,16.37
2023-05-19T04:44:56.807Z,16.37
2023-05-19T04:45:53.980Z,14.25
2023-05-19T04:46:54.723Z,17.90
2023-05-19T04:47:52.948Z,14.43
2023-05-19T04:48:50.586Z,17.02
2023-05-19T04:49:47.457Z,12.85
2023-05-19T04:50:44.369Z,13.00
2023-05-19T04:51:46.368Z,16.05
2023-05-19T04:52:45.718Z,15.60
2023-05-19T04:53:42.982Z,14.30
2023-05-19T04:54:40.508Z,15.63
2023-05-19T04:55:38.874Z,14.30
2023-05-19T04:56:36.149Z,13.60
2023-05-19T04:57:33.187Z,15.88
2023-05-19T04:58:30.486Z,16.48
2023-05-19T04:59:27.612Z,16.25
2023-05-19T05:00:25.572Z,14.85
2023-05-19T05:01:26.593Z,14.63
2023-05-19T05:02:23.806Z,15.30
2023-05-19T05:03:23.214Z,15.10
2023-05-19T05:04:21.854Z,13.62
2023-05-19T05:05:18.774Z,15.10
2023-05-19T05:06:16.490Z,14.87
2023-05-19T05:07:13.412Z,16.70
2023-05-19T05:08:12.710Z,15.85
2023-05-19T05:09:10.643Z,15.23
2023-05-19T05:10:08.267Z,14.75
2023-05-19T05:11:05.477Z,16.08
2023-05-19T05:12:03.379Z,18.85
2023-05-19T05:13:01.316Z,17.35
2023-05-19T05:13:58.596Z,16.95
2023-05-19T05:14:55.862Z,13.57
2023-05-19T05:15:53.049Z,18.00
2023-05-19T05:16:50.908Z,17.65
2023-05-19T05:17:48.330Z,18.35
2023-05-19T05:18:47.058Z,16.92
2023-05-19T05:19:44.348Z,19.00
2023-05-19T05:20:45.023Z,18.17
2023-05-19T05:22:39.378Z,20.37
2023-05-19T05:23:36.704Z,15.93
2023-05-19T05:24:33.984Z,17.00
2023-05-19T05:25:31.430Z,20.15
2023-05-19T05:26:33.905Z,15.88
2023-05-19T05:27:31.462Z,16.37
2023-05-19T05:28:28.391Z,15.43
2023-05-19T05:29:26.090Z,15.75
2023-05-19T05:30:23.006Z,22.02
2023-05-19T05:31:20.021Z,18.10
2023-05-19T05:32:17.522Z,16.98
2023-05-19T05:33:14.581Z,15.60
2023-05-19T05:34:11.701Z,16.83
2023-05-19T05:35:09.065Z,18.87
2023-05-19T05:36:06.353Z,18.50
2023-05-19T05:37:03.246Z,18.67
2023-05-19T05:38:01.806Z,17.23
2023-05-19T05:38:59.757Z,24.60
2023-05-19T05:39:56.684Z,17.87
2023-05-19T05:40:53.800Z,16.70
2023-05-19T05:41:50.762Z,16.55
2023-05-19T05:42:47.736Z,16.55
2023-05-19T05:43:44.605Z,16.33
2023-05-19T05:44:41.565Z,19.83
2023-05-19T05:45:38.579Z,16.70
2023-05-19T05:46:35.646Z,18.67
2023-05-19T05:47:32.910Z,16.05
2023-05-19T05:48:30.244Z,17.17
2023-05-19T05:49:27.473Z,19.35
2023-05-19T05:50:24.670Z,15.80
2023-05-19T05:51:24.933Z,17.30
2023-05-19T05:52:23.121Z,16.65
2023-05-19T05:53:21.640Z,19.65
2023-05-19T05:54:20.842Z,17.70
2023-05-19T05:55:18.132Z,15.70
2023-05-19T05:56:15.327Z,17.42
2023-05-19T05:57:12.612Z,15.90
2023-05-19T05:58:11.374Z,18.02
2023-05-19T05:59:08.428Z,16.15
2023-05-19T06:00:15.994Z,20.85
2023-05-19T06:01:13.022Z,15.75
2023-05-19T06:02:10.043Z,15.45
2023-05-19T06:03:07.285Z,15.52
2023-05-19T06:04:04.474Z,16.12
2023-05-19T06:05:02.704Z,15.65
2023-05-19T06:05:59.673Z,17.05
2023-05-19T06:07:01.314Z,17.83
2023-05-19T06:07:58.283Z,14.50
2023-05-19T06:08:55.230Z,16.25
2023-05-19T06:09:52.153Z,16.00
2023-05-19T06:10:49.160Z,17.35
2023-05-19T06:11:46.023Z,16.30
2023-05-19T06:12:43.520Z,15.25
2023-05-19T06:13:43.714Z,17.70
2023-05-19T06:14:40.617Z,15.02
2023-05-19T06:15:37.981Z,14.60
2023-05-19T06:16:35.015Z,17.05
2023-05-19T06:17:31.983Z,14.23
2023-05-19T06:18:29.568Z,16.20
2023-05-19T06:19:26.647Z,15.50
2023-05-19T06:20:23.753Z,16.40
2023-05-19T06:21:22.038Z,15.50
2023-05-19T06:22:19.017Z,16.90
2023-05-19T06:23:16.108Z,16.05
2023-05-19T06:24:13.135Z,18.77
2023-05-19T06:25:10.222Z,17.20
2023-05-19T06:26:07.316Z,21.50
2023-05-19T06:27:04.488Z,17.27
2023-05-19T06:28:01.373Z,16.92
2023-05-19T06:28:58.317Z,15.80
2023-05-19T06:29:55.167Z,19.48
2023-05-19T06:30:52.097Z,18.30
2023-05-19T06:31:49.200Z,16.10
2023-05-19T06:32:46.437Z,16.02
2023-05-19T06:33:43.366Z,16.35
2023-05-19T06:34:40.778Z,16.67
2023-05-19T06:35:37.837Z,18.55
2023-05-19T06:36:35.971Z,16.52
2023-05-19T06:37:36.014Z,15.40
2023-05-19T06:38:32.931Z,17.58
2023-05-19T06:39:30.052Z,18.60
2023-05-19T06:40:27.194Z,16.80
2023-05-19T06:41:24.179Z,16.62
2023-05-19T06:42:25.651Z,16.20
2023-05-19T06:43:22.698Z,18.12
2023-05-19T06:44:21.182Z,23.85
2023-05-19T06:45:22.009Z,17.60
2023-05-19T06:47:16.662Z,16.83
2023-05-19T06:48:13.748Z,16.02
2023-05-19T06:49:11.518Z,15.15
2023-05-19T06:50:10.481Z,18.17
2023-05-19T06:51:07.719Z,18.73
2023-05-19T06:52:05.383Z,17.85
2023-05-19T06:53:02.690Z,16.83
2023-05-19T06:53:59.944Z,14.70
2023-05-19T06:54:57.226Z,16.83
2023-05-19T06:55:59.809Z,15.80
2023-05-19T06:56:57.601Z,18.92
2023-05-19T06:57:54.933Z,17.98
2023-05-19T06:58:52.189Z,18.95
2023-05-19T06:59:49.304Z,17.55
2023-05-19T07:00:46.405Z,14.70
2023-05-19T07:01:43.561Z,15.90
2023-05-19T07:02:41.055Z,18.80
2023-05-19T07:03:38.216Z,16.40
2023-05-19T07:04:36.608Z,16.12
2023-05-19T07:05:34.547Z,15.68
2023-05-19T07:06:31.834Z,16.27
2023-05-19T07:07:28.976Z,15.23
2023-05-19T07:08:28.081Z,13.70
2023-05-19T07:09:25.053Z,16.48
2023-05-19T07:10:22.281Z,14.10
2023-05-19T07:11:19.411Z,17.58
2023-05-19T07:12:16.337Z,15.20
2023-05-19T07:13:13.350Z,15.07
2023-05-19T07:14:10.413Z,14.77
2023-05-19T07:15:07.783Z,13.38
2023-05-19T07:16:05.339Z,13.95
2023-05-19T07:17:02.794Z,15.40
2023-05-19T07:18:00.910Z,14.00
2023-05-19T07:18:58.323Z,17.10
2023-05-19T07:19:56.661Z,16.12
2023-05-19T07:20:54.219Z,16.55
2023-05-19T07:21:51.768Z,14.95
2023-05-19T07:22:49.348Z,18.02
2023-05-19T07:23:47.433Z,13.85
2023-05-19T07:24:45.284Z,14.32
2023-05-19T07:25:42.782Z,13.95
2023-05-19T07:26:41.069Z,15.65
2023-05-19T07:27:38.902Z,16.87
2023-05-19T07:28:36.308Z,13.88
2023-05-19T07:29:33.376Z,14.27
2023-05-19T07:30:30.853Z,13.80
2023-05-19T07:31:28.192Z,17.87
2023-05-19T07:32:25.806Z,13.62
2023-05-19T07:33:22.977Z,14.48
2023-05-19T07:34:21.305Z,14.70
2023-05-19T07:35:18.473Z,13.40
2023-05-19T07:36:16.352Z,14.55
2023-05-19T07:37:13.492Z,15.25
2023-05-19T07:38:10.442Z,14.57
2023-05-19T07:39:07.593Z,13.45
2023-05-19T07:40:06.980Z,13.98
2023-05-19T07:41:04.380Z,13.98
2023-05-19T07:42:01.820Z,17.23
2023-05-19T07:42:58.835Z,14.05
2023-05-19T07:43:56.159Z,20.67
2023-05-19T07:44:53.059Z,20.10
2023-05-19T07:45:50.024Z,15.32
2023-05-19T07:46:47.360Z,14.32
2023-05-19T07:47:44.339Z,14.55
2023-05-19T07:48:41.241Z,15.45
2023-05-19T07:49:38.207Z,17.23
2023-05-19T07:50:35.166Z,14.73
2023-05-19T07:51:32.056Z,13.95
2023-05-19T07:52:29.184Z,15.82
2023-05-19T07:53:26.506Z,14.82
2023-05-19T07:54:23.474Z,14.05
2023-05-19T07:55:23.330Z,15.88
2023-05-19T07:56:20.234Z,15.95
2023-05-19T07:57:17.150Z,13.57
2023-05-19T07:58:15.230Z,15.85
2023-05-19T07:59:12.142Z,16.62
2023-05-19T08:00:12.061Z,14.27
2023-05-19T08:01:09.050Z,16.33
2023-05-19T08:02:06.629Z,14.73
2023-05-19T08:03:03.805Z,14.82
2023-05-19T08:04:01.006Z,16.77
2023-05-19T08:04:58.443Z,13.55
2023-05-19T08:05:55.732Z,13.95
2023-05-19T08:06:53.231Z,13.43
2023-05-19T08:07:50.264Z,13.50
2023-05-19T08:08:47.496Z,17.87
2023-05-19T08:09:44.453Z,16.02
2023-05-19T08:10:41.418Z,12.95
2023-05-19T08:11:38.490Z,15.52
2023-05-19T08:12:35.596Z,13.43
2023-05-19T08:13:33.127Z,15.63
2023-05-19T08:14:30.081Z,15.45
2023-05-19T08:15:27.139Z,14.70
2023-05-19T08:16:24.652Z,11.48
2023-05-19T08:17:22.231Z,14.25
2023-05-19T08:18:20.307Z,13.95
2023-05-19T08:19:17.427Z,13.75
2023-05-19T08:20:15.029Z,13.38
2023-05-19T08:21:12.073Z,18.67
2023-05-19T08:22:09.039Z,13.40
2023-05-19T08:23:06.224Z,16.75
2023-05-19T08:24:03.361Z,14.77
2023-05-19T08:25:00.312Z,15.05
2023-05-19T08:25:57.280Z,14.00
2023-05-19T08:26:54.175Z,15.43
2023-05-19T08:27:51.559Z,15.10
2023-05-19T08:28:48.477Z,17.75
2023-05-19T08:29:45.561Z,15.07
2023-05-19T08:30:42.536Z,14.02
2023-05-19T08:31:39.457Z,14.98
2023-05-19T08:32:36.634Z,14.50
2023-05-19T08:33:33.716Z,14.65
2023-05-19T08:34:30.666Z,13.75
2023-05-19T08:35:27.597Z,15.95
2023-05-19T08:36:25.138Z,15.25
2023-05-19T08:37:22.121Z,15.75
2023-05-19T08:38:19.102Z,15.20
2023-05-19T08:39:18.489Z,14.13
2023-05-19T08:40:18.280Z,13.62
2023-05-19T08:41:15.201Z,12.73
2023-05-19T08:42:12.634Z,15.52
2023-05-19T08:43:10.236Z,14.15
2023-05-19T08:44:07.301Z,12.90
2023-05-19T08:45:04.641Z,13.50
2023-05-19T08:46:01.856Z,13.15
2023-05-19T08:47:02.223Z,12.45
2023-05-19T08:47:59.415Z,14.32
2023-05-19T08:49:00.233Z,14.98
2023-05-19T08:50:05.548Z,14.20
2023-05-19T08:51:23.565Z,14.80
2023-05-19T08:52:49.517Z,14.30
2023-05-19T08:53:51.879Z,12.90
2023-05-19T08:55:03.828Z,13.82
2023-05-19T08:56:11.310Z,14.13
2023-05-19T08:57:09.223Z,15.05
2023-05-19T08:58:06.208Z,16.20
2023-05-19T08:59:04.394Z,13.88
2023-05-19T09:00:01.533Z,15.57
2023-05-19T09:00:59.978Z,14.35
2023-05-19T09:01:57.535Z,12.95
2023-05-19T09:03:00.432Z,13.50
2023-05-19T09:04:08.683Z,12.68
2023-05-19T09:05:06.407Z,10.60
2023-05-19T09:06:05.946Z,11.80
2023-05-19T09:07:04.192Z,13.45
2023-05-19T09:08:03.055Z,15.23
2023-05-19T09:09:00.258Z,13.10
2023-05-19T09:09:57.201Z,12.68
2023-05-19T09:10:54.105Z,12.13
2023-05-19T09:11:51.614Z,12.55
2023-05-19T09:12:49.895Z,12.02
2023-05-19T09:13:47.270Z,12.82
2023-05-19T09:14:44.417Z,13.98
2023-05-19T09:15:42.617Z,12.98
2023-05-19T09:16:39.832Z,11.60
2023-05-19T09:17:37.395Z,11.38
2023-05-19T09:18:34.497Z,11.07
2023-05-19T09:19:32.092Z,11.80
2023-05-19T09:20:31.089Z,11.85
2023-05-19T09:21:31.993Z,10.55
2023-05-19T09:22:30.784Z,10.40
2023-05-19T09:23:29.795Z,11.52
2023-05-19T09:24:27.277Z,13.20
2023-05-19T09:25:24.359Z,10.93
2023-05-19T09:26:23.716Z,11.25
2023-05-19T09:27:23.814Z,11.52
2023-05-19T09:28:31.951Z,12.32
2023-05-19T09:29:28.940Z,11.77
2023-05-19T09:30:26.263Z,10.90
2023-05-19T09:31:23.848Z,12.45
2023-05-19T09:32:27.780Z,14.77
2023-05-19T09:33:24.904Z,11.73
2023-05-19T09:34:23.999Z,11.85
2023-05-19T09:35:21.850Z,12.60
2023-05-19T09:36:18.819Z,11.82
2023-05-19T09:37:16.061Z,11.77
2023-05-19T09:38:18.661Z,11.12
2023-05-19T09:39:16.768Z,10.85
2023-05-19T09:40:17.088Z,10.07
2023-05-19T09:41:15.198Z,10.77
2023-05-19T09:42:14.452Z,11.73
2023-05-19T09:43:12.022Z,10.05
2023-05-19T09:44:13.669Z,12.23
2023-05-19T09:45:11.684Z,10.60
2023-05-19T09:46:14.986Z,13.25
2023-05-19T09:47:12.021Z,10.63
2023-05-19T09:48:09.014Z,10.35
2023-05-19T09:49:09.972Z,12.23
2023-05-19T09:50:09.219Z,10.35
2023-05-19T09:51:08.315Z,12.90
2023-05-19T09:52:06.092Z,11.75
2023-05-19T09:53:04.372Z,10.15
2023-05-19T09:54:01.757Z,12.93
2023-05-19T09:54:58.811Z,14.75
2023-05-19T09:55:58.010Z,12.20
2023-05-19T09:57:02.277Z,13.20
2023-05-19T09:58:04.446Z,13.75
2023-05-19T09:59:04.874Z,12.80
2023-05-19T10:00:09.170Z,13.13
2023-05-19T10:01:06.643Z,13.40
2023-05-19T10:02:04.084Z,13.25
2023-05-19T10:03:02.216Z,13.70
2023-05-19T10:04:00.383Z,13.55
2023-05-19T10:04:57.410Z,11.82
2023-05-19T10:05:54.775Z,12.30
2023-05-19T10:06:55.119Z,12.43
2023-05-19T10:07:54.710Z,11.93
2023-05-19T10:08:52.515Z,11.68
2023-05-19T10:09:50.464Z,11.48
2023-05-19T10:10:47.979Z,12.93
2023-05-19T10:11:44.872Z,10.70
2023-05-19T10:12:42.520Z,11.70
2023-05-19T10:13:39.710Z,10.93
2023-05-19T10:14:37.018Z,10.75
2023-05-19T10:15:40.828Z,11.35
2023-05-19T10:16:44.624Z,12.00
2023-05-19T10:17:43.071Z,11.52
2023-05-19T10:18:40.491Z,11.20
2023-05-19T10:19:37.720Z,11.88
2023-05-19T10:20:35.352Z,9.50
2023-05-19T10:21:33.413Z,10.48
2023-05-19T10:22:30.382Z,11.85
2023-05-19T10:23:27.417Z,12.48
2023-05-19T10:24:24.560Z,11.27
2023-05-19T10:25:21.664Z,10.90
2023-05-19T10:26:19.346Z,13.80
2023-05-19T10:27:17.641Z,17.27
2023-05-19T10:28:17.111Z,11.15
2023-05-19T10:29:17.581Z,10.45
2023-05-19T10:30:16.838Z,13.02
2023-05-19T10:31:17.536Z,11.25
2023-05-19T10:33:17.473Z,10.98
2023-05-19T10:34:22.413Z,12.32
2023-05-19T10:35:26.018Z,11.23
2023-05-19T10:36:38.223Z,13.55
2023-05-19T10:38:00.708Z,10.80
2023-05-19T10:39:05.801Z,10.75
2023-05-19T10:40:10.316Z,11.43
2023-05-19T10:41:32.946Z,11.02
2023-05-19T10:42:38.623Z,11.48
2023-05-19T10:43:57.113Z,11.60
2023-05-19T10:45:10.258Z,13.00
2023-05-19T10:46:07.220Z,11.43
2023-05-19T10:47:07.786Z,12.00
2023-05-19T10:49:01.853Z,12.43
2023-05-19T10:50:01.535Z,10.30
2023-05-19T10:50:58.988Z,10.45
2023-05-19T10:51:57.551Z,9.52
2023-05-19T10:52:55.949Z,11.63
2023-05-19T10:53:54.514Z,10.40
2023-05-19T10:54:54.886Z,10.90
2023-05-19T10:55:56.429Z,9.23
2023-05-19T10:56:57.238Z,11.07
2023-05-19T10:57:57.080Z,9.45
2023-05-19T10:58:54.392Z,11.38
2023-05-19T10:59:51.551Z,11.70
2023-05-19T11:00:48.543Z,10.45
2023-05-19T11:01:45.501Z,13.35
2023-05-19T11:02:44.333Z,9.95
2023-05-19T11:03:48.798Z,10.15
2023-05-19T11:04:50.381Z,10.27
2023-05-19T11:05:51.198Z,10.25
2023-05-19T11:06:51.892Z,12.68
2023-05-19T11:09:10.719Z,9.55
2023-05-19T11:10:09.132Z,10.80
2023-05-19T11:11:19.266Z,9.07
2023-05-19T11:12:21.769Z,9.25
2023-05-19T11:13:22.538Z,9.90
2023-05-19T11:14:23.267Z,9.15
2023-05-19T11:15:26.249Z,9.52
2023-05-19T11:16:30.682Z,10.55
2023-05-19T11:17:29.271Z,10.40
2023-05-19T11:18:26.351Z,11.68
2023-05-19T11:19:30.767Z,10.65
2023-05-19T11:20:29.242Z,9.93
2023-05-19T11:21:42.909Z,10.23
2023-05-19T11:22:40.276Z,10.63
2023-05-19T11:23:39.422Z,8.73
2023-05-19T11:24:50.421Z,9.65
2023-05-19T11:25:49.879Z,9.25
2023-05-19T11:26:47.807Z,10.20
2023-05-19T11:27:46.905Z,11.00
2023-05-19T11:28:43.879Z,10.40
2023-05-19T11:29:42.796Z,9.88
2023-05-19T11:30:42.452Z,10.52
2023-05-19T11:31:39.595Z,9.52
2023-05-19T11:32:40.118Z,9.52
2023-05-19T11:33:37.549Z,10.38
2023-05-19T11:34:35.960Z,9.73
2023-05-19T11:35:36.181Z,9.57
2023-05-19T11:36:34.219Z,10.95
2023-05-19T11:37:34.877Z,10.77
2023-05-19T11:39:29.427Z,9.85
2023-05-19T11:40:26.980Z,10.52
2023-05-19T11:41:24.004Z,9.38
2023-05-19T11:42:21.189Z,12.05
2023-05-19T11:43:18.167Z,11.10
2023-05-19T11:44:15.142Z,9.70
2023-05-19T11:45:12.231Z,9.48
2023-05-19T11:46:09.873Z,9.93
2023-05-19T11:47:07.553Z,9.65
2023-05-19T11:48:05.639Z,8.75
2023-05-19T11:49:02.756Z,9.82
2023-05-19T11:50:00.312Z,8.90
2023-05-19T11:50:58.019Z,9.50
2023-05-19T11:51:55.130Z,8.40
2023-05-19T11:52:52.930Z,9.35
2023-05-19T11:53:50.465Z,10.35
2023-05-19T11:54:48.672Z,8.77
2023-05-19T11:55:47.052Z,11.77
2023-05-19T11:56:44.403Z,8.50
2023-05-19T11:57:44.798Z,10.35
2023-05-19T11:58:46.689Z,8.50
2023-05-19T11:59:48.464Z,8.98
2023-05-19T12:00:48.611Z,9.65
2023-05-19T12:01:45.646Z,8.77
2023-05-19T12:02:42.812Z,8.63
2023-05-19T12:03:40.109Z,11.35
2023-05-19T12:04:37.286Z,11.95
2023-05-19T12:05:40.921Z,9.25
2023-05-19T12:06:39.449Z,9.60
2023-05-19T12:07:39.591Z,9.00
2023-05-19T12:08:37.032Z,8.20
2023-05-19T12:09:34.206Z,8.30
2023-05-19T12:10:31.778Z,10.63
2023-05-19T12:11:29.171Z,8.43
2023-05-19T12:12:26.442Z,9.43
2023-05-19T12:13:23.675Z,8.25
2023-05-19T12:14:20.733Z,9.75
2023-05-19T12:15:22.130Z,9.07
2023-05-19T12:16:21.358Z,12.43
2023-05-19T12:17:21.837Z,10.07
2023-05-19T12:18:19.954Z,10.38
2023-05-19T12:19:17.051Z,10.45
2023-05-19T12:20:14.080Z,10.35
2023-05-19T12:21:11.457Z,9.85
2023-05-19T12:22:08.668Z,10.95
2023-05-19T12:23:05.973Z,9.85
2023-05-19T12:24:03.602Z,9.38
2023-05-19T12:25:00.761Z,8.93
2023-05-19T12:25:59.313Z,11.90
2023-05-19T12:27:29.154Z,8.60
2023-05-19T12:28:26.194Z,8.57
2023-05-19T12:29:23.266Z,9.23
2023-05-19T12:30:26.755Z,10.88
2023-05-19T12:31:24.242Z,11.10
2023-05-19T12:32:25.751Z,8.95
2023-05-19T12:33:24.541Z,10.05
2023-05-19T12:34:21.736Z,9.55
2023-05-19T12:35:20.150Z,9.43
2023-05-19T12:36:17.100Z,9.13
2023-05-19T12:37:14.172Z,11.70
2023-05-19T12:38:11.084Z,9.75
2023-05-19T12:39:08.149Z,10.80
2023-05-19T12:40:05.746Z,8.68
2023-05-19T12:41:02.696Z,6.80
2023-05-19T12:42:09.397Z,10.07
2023-05-19T12:43:07.072Z,10.15
2023-05-19T12:44:16.624Z,9.70
2023-05-19T12:45:13.728Z,8.73
2023-05-19T12:46:12.332Z,9.60
2023-05-19T12:47:09.485Z,9.50
2023-05-19T12:48:11.415Z,9.05